sensor_id;sensor_type;location;lat;lon;timestamp;P1;P2;P0
48155;PMS5003;35568;48.104;11.782;2022-12-07T00:01:37;12;12;
48155;PMS5003;35568;48.104;11.782;2022-12-07T00:04:05;15;15;
48155;PMS5003;35568;48.104;11.782;2022-12-07T00:06:35;16;15;
48155;PMS5003;35568;48.104;11.782;2022-12-07T00:09:03;14;13;
48155;PMS5003;35568;48.104;11.782;2022-12-07T00:11:32;15;13;
48155;PMS5003;35568;48.104;11.782;2022-12-07T00:14:00;14;13;
48155;PMS5003;35568;48.104;11.782;2022-12-07T00:16:30;14;11;
48155;PMS5003;35568;48.104;11.782;2022-12-07T00:18:58;14;14;
48155;PMS5003;35568;48.104;11.782;2022-12-07T00:21:26;16;15;
48155;PMS5003;35568;48.104;11.782;2022-12-07T00:23:54;13;13;
48155;PMS5003;35568;48.104;11.782;2022-12-07T00:26:23;13;12;
48155;PMS5003;35568;48.104;11.782;2022-12-07T00:28:52;13;13;
48155;PMS5003;35568;48.104;11.782;2022-12-07T00:31:21;12;11;
48155;PMS5003;35568;48.104;11.782;2022-12-07T00:33:50;12;10;
48155;PMS5003;35568;48.104;11.782;2022-12-07T00:36:18;12;12;
48155;PMS5003;35568;48.104;11.782;2022-12-07T00:38:46;12;12;
48155;PMS5003;35568;48.104;11.782;2022-12-07T00:41:14;12;12;
48155;PMS5003;35568;48.104;11.782;2022-12-07T00:43:43;16;13;
48155;PMS5003;35568;48.104;11.782;2022-12-07T00:46:11;12;12;
48155;PMS5003;35568;48.104;11.782;2022-12-07T00:48:39;12;12;
48155;PMS5003;35568;48.104;11.782;2022-12-07T00:51:06;17;15;
48155;PMS5003;35568;48.104;11.782;2022-12-07T00:53:36;14;14;
48155;PMS5003;35568;48.104;11.782;2022-12-07T00:56:04;13;13;
48155;PMS5003;35568;48.104;11.782;2022-12-07T00:58:32;14;13;
48155;PMS5003;35568;48.104;11.782;2022-12-07T01:00:59;14;13;
48155;PMS5003;35568;48.104;11.782;2022-12-07T01:03:26;16;15;
48155;PMS5003;35568;48.104;11.782;2022-12-07T01:05:53;12;11;
48155;PMS5003;35568;48.104;11.782;2022-12-07T01:08:22;12;11;
48155;PMS5003;35568;48.104;11.782;2022-12-07T01:10:57;15;12;
48155;PMS5003;35568;48.104;11.782;2022-12-07T01:13:25;11;10;
48155;PMS5003;35568;48.104;11.782;2022-12-07T01:15:55;11;10;
48155;PMS5003;35568;48.104;11.782;2022-12-07T01:18:23;15;13;
48155;PMS5003;35568;48.104;11.782;2022-12-07T01:20:56;13;13;
48155;PMS5003;35568;48.104;11.782;2022-12-07T01:23:24;11;10;
48155;PMS5003;35568;48.104;11.782;2022-12-07T01:25:53;13;12;
48155;PMS5003;35568;48.104;11.782;2022-12-07T01:28:22;11;11;
48155;PMS5003;35568;48.104;11.782;2022-12-07T01:30:57;10;9;
48155;PMS5003;35568;48.104;11.782;2022-12-07T01:33:26;13;10;
48155;PMS5003;35568;48.104;11.782;2022-12-07T01:35:55;14;14;
48155;PMS5003;35568;48.104;11.782;2022-12-07T01:38:27;11;11;
48155;PMS5003;35568;48.104;11.782;2022-12-07T01:40:56;11;10;
48155;PMS5003;35568;48.104;11.782;2022-12-07T01:43:25;13;12;
48155;PMS5003;35568;48.104;11.782;2022-12-07T01:45:55;10;10;
48155;PMS5003;35568;48.104;11.782;2022-12-07T01:48:24;14;13;
48155;PMS5003;35568;48.104;11.782;2022-12-07T01:50:54;10;10;
48155;PMS5003;35568;48.104;11.782;2022-12-07T01:53:24;11;10;
48155;PMS5003;35568;48.104;11.782;2022-12-07T01:55:55;12;11;
48155;PMS5003;35568;48.104;11.782;2022-12-07T01:58:24;12;10;
48155;PMS5003;35568;48.104;11.782;2022-12-07T02:00:51;14;13;
48155;PMS5003;35568;48.104;11.782;2022-12-07T02:03:20;16;13;
48155;PMS5003;35568;48.104;11.782;2022-12-07T02:05:52;12;12;
48155;PMS5003;35568;48.104;11.782;2022-12-07T02:08:20;13;12;
48155;PMS5003;35568;48.104;11.782;2022-12-07T02:10:48;9;9;
48155;PMS5003;35568;48.104;11.782;2022-12-07T02:13:15;12;12;
48155;PMS5003;35568;48.104;11.782;2022-12-07T02:15:50;15;13;
48155;PMS5003;35568;48.104;11.782;2022-12-07T02:18:30;15;14;
48155;PMS5003;35568;48.104;11.782;2022-12-07T02:21:12;13;13;
48155;PMS5003;35568;48.104;11.782;2022-12-07T02:23:51;12;11;
48155;PMS5003;35568;48.104;11.782;2022-12-07T02:26:43;12;12;
48155;PMS5003;35568;48.104;11.782;2022-12-07T02:29:22;12;11;
48155;PMS5003;35568;48.104;11.782;2022-12-07T02:31:54;14;12;
48155;PMS5003;35568;48.104;11.782;2022-12-07T02:34:31;11;10;
48155;PMS5003;35568;48.104;11.782;2022-12-07T02:37:05;15;13;
48155;PMS5003;35568;48.104;11.782;2022-12-07T02:39:42;13;13;
48155;PMS5003;35568;48.104;11.782;2022-12-07T02:42:17;13;12;
48155;PMS5003;35568;48.104;11.782;2022-12-07T02:44:49;10;10;
48155;PMS5003;35568;48.104;11.782;2022-12-07T02:47:16;12;11;
48155;PMS5003;35568;48.104;11.782;2022-12-07T02:49:46;12;11;
48155;PMS5003;35568;48.104;11.782;2022-12-07T02:52:14;10;10;
48155;PMS5003;35568;48.104;11.782;2022-12-07T02:54:41;16;15;
48155;PMS5003;35568;48.104;11.782;2022-12-07T02:57:13;11;10;
48155;PMS5003;35568;48.104;11.782;2022-12-07T02:59:55;12;12;
48155;PMS5003;35568;48.104;11.782;2022-12-07T03:02:31;15;13;
48155;PMS5003;35568;48.104;11.782;2022-12-07T03:05:09;14;14;
48155;PMS5003;35568;48.104;11.782;2022-12-07T03:07:48;13;12;
48155;PMS5003;35568;48.104;11.782;2022-12-07T03:10:22;11;10;
48155;PMS5003;35568;48.104;11.782;2022-12-07T03:12:57;12;12;
48155;PMS5003;35568;48.104;11.782;2022-12-07T03:15:32;13;13;
48155;PMS5003;35568;48.104;11.782;2022-12-07T03:18:02;14;12;
48155;PMS5003;35568;48.104;11.782;2022-12-07T03:20:31;14;14;
48155;PMS5003;35568;48.104;11.782;2022-12-07T03:23:03;13;12;
48155;PMS5003;35568;48.104;11.782;2022-12-07T03:25:32;11;11;
48155;PMS5003;35568;48.104;11.782;2022-12-07T03:28:05;11;10;
48155;PMS5003;35568;48.104;11.782;2022-12-07T03:30:35;12;12;
48155;PMS5003;35568;48.104;11.782;2022-12-07T03:33:08;12;12;
48155;PMS5003;35568;48.104;11.782;2022-12-07T03:35:40;12;12;
48155;PMS5003;35568;48.104;11.782;2022-12-07T03:38:13;14;13;
48155;PMS5003;35568;48.104;11.782;2022-12-07T03:40:47;14;12;
48155;PMS5003;35568;48.104;11.782;2022-12-07T03:43:18;14;12;
48155;PMS5003;35568;48.104;11.782;2022-12-07T03:45:49;13;11;
48155;PMS5003;35568;48.104;11.782;2022-12-07T03:48:25;14;14;
48155;PMS5003;35568;48.104;11.782;2022-12-07T03:50:58;14;13;
48155;PMS5003;35568;48.104;11.782;2022-12-07T03:53:34;14;14;
48155;PMS5003;35568;48.104;11.782;2022-12-07T03:56:04;15;15;
48155;PMS5003;35568;48.104;11.782;2022-12-07T03:58:34;12;12;
48155;PMS5003;35568;48.104;11.782;2022-12-07T04:03:00;17;16;
48155;PMS5003;35568;48.104;11.782;2022-12-07T04:05:27;17;15;
48155;PMS5003;35568;48.104;11.782;2022-12-07T04:07:54;14;14;
48155;PMS5003;35568;48.104;11.782;2022-12-07T04:10:22;11;11;
48155;PMS5003;35568;48.104;11.782;2022-12-07T04:12:49;13;13;
48155;PMS5003;35568;48.104;11.782;2022-12-07T04:15:16;11;11;
48155;PMS5003;35568;48.104;11.782;2022-12-07T04:17:43;15;14;
48155;PMS5003;35568;48.104;11.782;2022-12-07T04:20:10;13;11;
48155;PMS5003;35568;48.104;11.782;2022-12-07T04:22:37;14;14;
48155;PMS5003;35568;48.104;11.782;2022-12-07T04:25:05;15;14;
48155;PMS5003;35568;48.104;11.782;2022-12-07T04:27:32;12;12;
48155;PMS5003;35568;48.104;11.782;2022-12-07T04:29:59;15;15;
48155;PMS5003;35568;48.104;11.782;2022-12-07T04:32:26;16;14;
48155;PMS5003;35568;48.104;11.782;2022-12-07T04:34:53;16;13;
48155;PMS5003;35568;48.104;11.782;2022-12-07T04:37:20;12;12;
48155;PMS5003;35568;48.104;11.782;2022-12-07T04:39:46;13;12;
48155;PMS5003;35568;48.104;11.782;2022-12-07T04:42:13;18;16;
48155;PMS5003;35568;48.104;11.782;2022-12-07T04:44:40;12;12;
48155;PMS5003;35568;48.104;11.782;2022-12-07T04:47:07;16;16;
48155;PMS5003;35568;48.104;11.782;2022-12-07T04:49:33;12;12;
48155;PMS5003;35568;48.104;11.782;2022-12-07T04:52:00;14;14;
48155;PMS5003;35568;48.104;11.782;2022-12-07T04:54:27;16;14;
48155;PMS5003;35568;48.104;11.782;2022-12-07T04:56:54;13;12;
48155;PMS5003;35568;48.104;11.782;2022-12-07T04:59:21;15;14;
48155;PMS5003;35568;48.104;11.782;2022-12-07T05:01:47;16;15;
48155;PMS5003;35568;48.104;11.782;2022-12-07T05:04:14;19;18;
48155;PMS5003;35568;48.104;11.782;2022-12-07T05:06:41;14;13;
48155;PMS5003;35568;48.104;11.782;2022-12-07T05:09:09;16;15;
48155;PMS5003;35568;48.104;11.782;2022-12-07T05:11:35;13;13;
48155;PMS5003;35568;48.104;11.782;2022-12-07T05:14:03;17;16;
48155;PMS5003;35568;48.104;11.782;2022-12-07T05:16:31;15;15;
48155;PMS5003;35568;48.104;11.782;2022-12-07T05:18:58;17;16;
48155;PMS5003;35568;48.104;11.782;2022-12-07T05:21:25;14;13;
48155;PMS5003;35568;48.104;11.782;2022-12-07T05:23:52;17;16;
48155;PMS5003;35568;48.104;11.782;2022-12-07T05:26:19;14;13;
48155;PMS5003;35568;48.104;11.782;2022-12-07T05:28:49;23;20;
48155;PMS5003;35568;48.104;11.782;2022-12-07T05:31:17;21;17;
48155;PMS5003;35568;48.104;11.782;2022-12-07T05:33:45;21;19;
48155;PMS5003;35568;48.104;11.782;2022-12-07T05:36:12;18;16;
48155;PMS5003;35568;48.104;11.782;2022-12-07T05:38:39;16;15;
48155;PMS5003;35568;48.104;11.782;2022-12-07T05:41:07;18;15;
48155;PMS5003;35568;48.104;11.782;2022-12-07T05:43:35;18;18;
48155;PMS5003;35568;48.104;11.782;2022-12-07T05:46:01;13;13;
48155;PMS5003;35568;48.104;11.782;2022-12-07T05:48:28;18;17;
48155;PMS5003;35568;48.104;11.782;2022-12-07T05:50:55;18;17;
48155;PMS5003;35568;48.104;11.782;2022-12-07T05:53:22;17;17;
48155;PMS5003;35568;48.104;11.782;2022-12-07T05:55:48;15;14;
48155;PMS5003;35568;48.104;11.782;2022-12-07T05:58:15;14;14;
48155;PMS5003;35568;48.104;11.782;2022-12-07T06:00:42;17;16;
48155;PMS5003;35568;48.104;11.782;2022-12-07T06:03:09;20;17;
48155;PMS5003;35568;48.104;11.782;2022-12-07T06:05:36;16;15;
48155;PMS5003;35568;48.104;11.782;2022-12-07T06:08:03;22;20;
48155;PMS5003;35568;48.104;11.782;2022-12-07T06:10:30;19;18;
48155;PMS5003;35568;48.104;11.782;2022-12-07T06:12:57;12;12;
48155;PMS5003;35568;48.104;11.782;2022-12-07T06:15:24;17;16;
48155;PMS5003;35568;48.104;11.782;2022-12-07T06:17:51;19;18;
48155;PMS5003;35568;48.104;11.782;2022-12-07T06:20:18;14;13;
48155;PMS5003;35568;48.104;11.782;2022-12-07T06:22:44;16;16;
48155;PMS5003;35568;48.104;11.782;2022-12-07T06:25:12;15;15;
48155;PMS5003;35568;48.104;11.782;2022-12-07T06:27:38;19;18;
48155;PMS5003;35568;48.104;11.782;2022-12-07T06:30:06;15;14;
48155;PMS5003;35568;48.104;11.782;2022-12-07T06:32:33;19;15;
48155;PMS5003;35568;48.104;11.782;2022-12-07T06:35:02;15;15;
48155;PMS5003;35568;48.104;11.782;2022-12-07T06:37:29;13;11;
48155;PMS5003;35568;48.104;11.782;2022-12-07T06:39:56;14;14;
48155;PMS5003;35568;48.104;11.782;2022-12-07T06:42:23;14;13;
48155;PMS5003;35568;48.104;11.782;2022-12-07T06:44:50;12;11;
48155;PMS5003;35568;48.104;11.782;2022-12-07T06:47:17;17;17;
48155;PMS5003;35568;48.104;11.782;2022-12-07T06:49:44;14;14;
48155;PMS5003;35568;48.104;11.782;2022-12-07T06:52:11;13;13;
48155;PMS5003;35568;48.104;11.782;2022-12-07T06:54:37;13;13;
48155;PMS5003;35568;48.104;11.782;2022-12-07T06:57:05;16;14;
48155;PMS5003;35568;48.104;11.782;2022-12-07T06:59:32;12;12;
48155;PMS5003;35568;48.104;11.782;2022-12-07T07:01:59;15;15;
48155;PMS5003;35568;48.104;11.782;2022-12-07T07:04:26;16;16;
48155;PMS5003;35568;48.104;11.782;2022-12-07T07:06:53;12;12;
48155;PMS5003;35568;48.104;11.782;2022-12-07T07:09:20;14;14;
48155;PMS5003;35568;48.104;11.782;2022-12-07T07:11:47;20;19;
48155;PMS5003;35568;48.104;11.782;2022-12-07T07:14:14;16;16;
48155;PMS5003;35568;48.104;11.782;2022-12-07T07:16:42;15;15;
48155;PMS5003;35568;48.104;11.782;2022-12-07T07:19:08;16;13;
48155;PMS5003;35568;48.104;11.782;2022-12-07T07:21:36;14;13;
48155;PMS5003;35568;48.104;11.782;2022-12-07T07:24:04;14;14;
48155;PMS5003;35568;48.104;11.782;2022-12-07T07:26:31;17;17;
48155;PMS5003;35568;48.104;11.782;2022-12-07T07:28:58;15;15;
48155;PMS5003;35568;48.104;11.782;2022-12-07T07:31:25;14;13;
48155;PMS5003;35568;48.104;11.782;2022-12-07T07:33:52;17;16;
48155;PMS5003;35568;48.104;11.782;2022-12-07T07:36:19;20;17;
48155;PMS5003;35568;48.104;11.782;2022-12-07T07:38:46;16;16;
48155;PMS5003;35568;48.104;11.782;2022-12-07T07:41:13;19;17;
48155;PMS5003;35568;48.104;11.782;2022-12-07T07:43:40;21;19;
48155;PMS5003;35568;48.104;11.782;2022-12-07T07:46:07;17;17;
48155;PMS5003;35568;48.104;11.782;2022-12-07T07:48:33;18;16;
48155;PMS5003;35568;48.104;11.782;2022-12-07T07:51:00;18;16;
48155;PMS5003;35568;48.104;11.782;2022-12-07T07:53:30;20;18;
48155;PMS5003;35568;48.104;11.782;2022-12-07T07:55:57;21;20;
48155;PMS5003;35568;48.104;11.782;2022-12-07T07:58:25;19;18;
48155;PMS5003;35568;48.104;11.782;2022-12-07T08:00:52;14;14;
48155;PMS5003;35568;48.104;11.782;2022-12-07T08:03:19;17;16;
48155;PMS5003;35568;48.104;11.782;2022-12-07T08:05:46;22;20;
48155;PMS5003;35568;48.104;11.782;2022-12-07T08:08:13;23;21;
48155;PMS5003;35568;48.104;11.782;2022-12-07T08:10:40;22;20;
48155;PMS5003;35568;48.104;11.782;2022-12-07T08:13:07;21;20;
48155;PMS5003;35568;48.104;11.782;2022-12-07T08:15:36;21;21;
48155;PMS5003;35568;48.104;11.782;2022-12-07T08:18:03;21;19;
48155;PMS5003;35568;48.104;11.782;2022-12-07T08:20:31;26;23;
48155;PMS5003;35568;48.104;11.782;2022-12-07T08:22:59;20;20;
48155;PMS5003;35568;48.104;11.782;2022-12-07T08:25:26;18;17;
48155;PMS5003;35568;48.104;11.782;2022-12-07T08:27:54;17;16;
48155;PMS5003;35568;48.104;11.782;2022-12-07T08:30:21;18;16;
48155;PMS5003;35568;48.104;11.782;2022-12-07T08:32:48;18;17;
48155;PMS5003;35568;48.104;11.782;2022-12-07T08:35:15;17;15;
48155;PMS5003;35568;48.104;11.782;2022-12-07T08:37:42;16;13;
48155;PMS5003;35568;48.104;11.782;2022-12-07T08:40:10;15;15;
48155;PMS5003;35568;48.104;11.782;2022-12-07T08:42:38;19;17;
48155;PMS5003;35568;48.104;11.782;2022-12-07T08:45:07;21;20;
48155;PMS5003;35568;48.104;11.782;2022-12-07T08:47:36;17;16;
48155;PMS5003;35568;48.104;11.782;2022-12-07T08:50:07;18;18;
48155;PMS5003;35568;48.104;11.782;2022-12-07T08:52:36;13;13;
48155;PMS5003;35568;48.104;11.782;2022-12-07T08:55:04;21;20;
48155;PMS5003;35568;48.104;11.782;2022-12-07T08:57:32;17;17;
48155;PMS5003;35568;48.104;11.782;2022-12-07T09:00:02;17;16;
48155;PMS5003;35568;48.104;11.782;2022-12-07T09:02:30;14;14;
48155;PMS5003;35568;48.104;11.782;2022-12-07T09:04:58;16;14;
48155;PMS5003;35568;48.104;11.782;2022-12-07T09:07:24;14;13;
48155;PMS5003;35568;48.104;11.782;2022-12-07T09:09:52;18;15;
48155;PMS5003;35568;48.104;11.782;2022-12-07T09:12:18;16;13;
48155;PMS5003;35568;48.104;11.782;2022-12-07T09:14:45;15;15;
48155;PMS5003;35568;48.104;11.782;2022-12-07T09:17:13;18;18;
48155;PMS5003;35568;48.104;11.782;2022-12-07T09:19:39;14;13;
48155;PMS5003;35568;48.104;11.782;2022-12-07T09:22:06;20;19;
48155;PMS5003;35568;48.104;11.782;2022-12-07T09:24:33;21;18;
48155;PMS5003;35568;48.104;11.782;2022-12-07T09:27:00;16;15;
48155;PMS5003;35568;48.104;11.782;2022-12-07T09:29:26;13;13;
48155;PMS5003;35568;48.104;11.782;2022-12-07T09:31:53;14;12;
48155;PMS5003;35568;48.104;11.782;2022-12-07T09:34:20;17;15;
48155;PMS5003;35568;48.104;11.782;2022-12-07T09:36:46;15;15;
48155;PMS5003;35568;48.104;11.782;2022-12-07T09:39:13;13;13;
48155;PMS5003;35568;48.104;11.782;2022-12-07T09:41:41;14;12;
48155;PMS5003;35568;48.104;11.782;2022-12-07T09:44:11;13;11;
48155;PMS5003;35568;48.104;11.782;2022-12-07T09:46:41;12;12;
48155;PMS5003;35568;48.104;11.782;2022-12-07T09:49:11;11;11;
48155;PMS5003;35568;48.104;11.782;2022-12-07T09:51:41;14;13;
48155;PMS5003;35568;48.104;11.782;2022-12-07T09:54:09;16;15;
48155;PMS5003;35568;48.104;11.782;2022-12-07T09:56:39;12;11;
48155;PMS5003;35568;48.104;11.782;2022-12-07T09:59:09;12;11;
48155;PMS5003;35568;48.104;11.782;2022-12-07T10:01:41;15;13;
48155;PMS5003;35568;48.104;11.782;2022-12-07T10:04:10;14;14;
48155;PMS5003;35568;48.104;11.782;2022-12-07T10:06:40;14;13;
48155;PMS5003;35568;48.104;11.782;2022-12-07T10:09:10;15;13;
48155;PMS5003;35568;48.104;11.782;2022-12-07T10:12:11;13;13;
48155;PMS5003;35568;48.104;11.782;2022-12-07T10:14:39;12;12;
48155;PMS5003;35568;48.104;11.782;2022-12-07T10:17:35;14;11;
48155;PMS5003;35568;48.104;11.782;2022-12-07T10:20:21;12;12;
48155;PMS5003;35568;48.104;11.782;2022-12-07T10:22:58;12;12;
48155;PMS5003;35568;48.104;11.782;2022-12-07T10:25:29;20;19;
48155;PMS5003;35568;48.104;11.782;2022-12-07T10:27:59;14;13;
48155;PMS5003;35568;48.104;11.782;2022-12-07T10:30:29;14;14;
48155;PMS5003;35568;48.104;11.782;2022-12-07T10:32:58;10;9;
48155;PMS5003;35568;48.104;11.782;2022-12-07T10:35:26;11;11;
48155;PMS5003;35568;48.104;11.782;2022-12-07T10:37:55;15;14;
48155;PMS5003;35568;48.104;11.782;2022-12-07T10:40:26;15;13;
48155;PMS5003;35568;48.104;11.782;2022-12-07T10:43:04;11;10;
48155;PMS5003;35568;48.104;11.782;2022-12-07T10:45:42;13;13;
48155;PMS5003;35568;48.104;11.782;2022-12-07T10:48:42;12;11;
48155;PMS5003;35568;48.104;11.782;2022-12-07T10:51:19;13;13;
48155;PMS5003;35568;48.104;11.782;2022-12-07T10:53:54;11;11;
48155;PMS5003;35568;48.104;11.782;2022-12-07T10:56:34;12;12;
48155;PMS5003;35568;48.104;11.782;2022-12-07T10:59:18;14;13;
48155;PMS5003;35568;48.104;11.782;2022-12-07T11:03:02;14;11;
48155;PMS5003;35568;48.104;11.782;2022-12-07T11:05:48;14;12;
48155;PMS5003;35568;48.104;11.782;2022-12-07T11:08:29;13;13;
48155;PMS5003;35568;48.104;11.782;2022-12-07T11:11:12;15;14;
48155;PMS5003;35568;48.104;11.782;2022-12-07T11:13:44;17;16;
48155;PMS5003;35568;48.104;11.782;2022-12-07T11:16:24;12;12;
48155;PMS5003;35568;48.104;11.782;2022-12-07T11:19:06;14;14;
48155;PMS5003;35568;48.104;11.782;2022-12-07T11:21:48;15;14;
48155;PMS5003;35568;48.104;11.782;2022-12-07T11:24:24;16;15;
48155;PMS5003;35568;48.104;11.782;2022-12-07T11:27:02;15;15;
48155;PMS5003;35568;48.104;11.782;2022-12-07T11:29:45;14;14;
48155;PMS5003;35568;48.104;11.782;2022-12-07T11:32:21;15;14;
48155;PMS5003;35568;48.104;11.782;2022-12-07T11:34:59;13;12;
48155;PMS5003;35568;48.104;11.782;2022-12-07T11:37:32;18;16;
48155;PMS5003;35568;48.104;11.782;2022-12-07T11:40:02;14;14;
48155;PMS5003;35568;48.104;11.782;2022-12-07T11:42:35;12;11;
48155;PMS5003;35568;48.104;11.782;2022-12-07T11:45:10;13;13;
48155;PMS5003;35568;48.104;11.782;2022-12-07T11:47:43;14;14;
48155;PMS5003;35568;48.104;11.782;2022-12-07T11:50:20;12;12;
48155;PMS5003;35568;48.104;11.782;2022-12-07T11:52:54;15;14;
48155;PMS5003;35568;48.104;11.782;2022-12-07T11:55:26;14;14;
48155;PMS5003;35568;48.104;11.782;2022-12-07T11:58:00;16;16;
48155;PMS5003;35568;48.104;11.782;2022-12-07T12:00:31;13;12;
48155;PMS5003;35568;48.104;11.782;2022-12-07T12:03:01;18;17;
48155;PMS5003;35568;48.104;11.782;2022-12-07T12:05:34;11;10;
48155;PMS5003;35568;48.104;11.782;2022-12-07T12:08:03;16;15;
48155;PMS5003;35568;48.104;11.782;2022-12-07T12:10:40;13;10;
48155;PMS5003;35568;48.104;11.782;2022-12-07T12:13:25;16;14;
48155;PMS5003;35568;48.104;11.782;2022-12-07T12:16:06;12;12;
48155;PMS5003;35568;48.104;11.782;2022-12-07T12:18:45;15;15;
48155;PMS5003;35568;48.104;11.782;2022-12-07T12:21:27;15;14;
48155;PMS5003;35568;48.104;11.782;2022-12-07T12:23:57;17;16;
48155;PMS5003;35568;48.104;11.782;2022-12-07T12:26:29;13;13;
48155;PMS5003;35568;48.104;11.782;2022-12-07T12:29:00;16;14;
48155;PMS5003;35568;48.104;11.782;2022-12-07T12:31:31;15;14;
48155;PMS5003;35568;48.104;11.782;2022-12-07T12:34:02;13;13;
48155;PMS5003;35568;48.104;11.782;2022-12-07T12:36:46;16;14;
48155;PMS5003;35568;48.104;11.782;2022-12-07T12:39:13;16;14;
48155;PMS5003;35568;48.104;11.782;2022-12-07T12:41:58;11;11;
48155;PMS5003;35568;48.104;11.782;2022-12-07T12:45:03;10;10;
48155;PMS5003;35568;48.104;11.782;2022-12-07T12:47:53;12;12;
48155;PMS5003;35568;48.104;11.782;2022-12-07T12:50:24;14;14;
48155;PMS5003;35568;48.104;11.782;2022-12-07T12:52:54;13;12;
48155;PMS5003;35568;48.104;11.782;2022-12-07T12:55:41;14;13;
48155;PMS5003;35568;48.104;11.782;2022-12-07T12:58:29;13;13;
48155;PMS5003;35568;48.104;11.782;2022-12-07T13:03:25;18;17;
48155;PMS5003;35568;48.104;11.782;2022-12-07T13:06:16;15;14;
48155;PMS5003;35568;48.104;11.782;2022-12-07T13:08:44;17;16;
48155;PMS5003;35568;48.104;11.782;2022-12-07T13:11:16;17;16;
48155;PMS5003;35568;48.104;11.782;2022-12-07T13:13:45;13;13;
48155;PMS5003;35568;48.104;11.782;2022-12-07T13:16:45;13;13;
48155;PMS5003;35568;48.104;11.782;2022-12-07T13:19:53;13;12;
48155;PMS5003;35568;48.104;11.782;2022-12-07T13:22:39;14;14;
48155;PMS5003;35568;48.104;11.782;2022-12-07T13:25:11;17;15;
48155;PMS5003;35568;48.104;11.782;2022-12-07T13:27:47;13;12;
48155;PMS5003;35568;48.104;11.782;2022-12-07T13:30:21;13;13;
48155;PMS5003;35568;48.104;11.782;2022-12-07T13:32:51;12;12;
48155;PMS5003;35568;48.104;11.782;2022-12-07T13:35:35;13;13;
48155;PMS5003;35568;48.104;11.782;2022-12-07T13:38:05;12;12;
48155;PMS5003;35568;48.104;11.782;2022-12-07T13:40:42;15;14;
48155;PMS5003;35568;48.104;11.782;2022-12-07T13:43:25;14;12;
48155;PMS5003;35568;48.104;11.782;2022-12-07T13:45:55;16;15;
48155;PMS5003;35568;48.104;11.782;2022-12-07T13:48:24;17;17;
48155;PMS5003;35568;48.104;11.782;2022-12-07T13:50:57;20;18;
48155;PMS5003;35568;48.104;11.782;2022-12-07T13:53:25;18;17;
48155;PMS5003;35568;48.104;11.782;2022-12-07T13:55:53;18;17;
48155;PMS5003;35568;48.104;11.782;2022-12-07T13:58:21;18;17;
48155;PMS5003;35568;48.104;11.782;2022-12-07T14:00:48;16;15;
48155;PMS5003;35568;48.104;11.782;2022-12-07T14:03:23;18;16;
48155;PMS5003;35568;48.104;11.782;2022-12-07T14:06:25;16;15;
48155;PMS5003;35568;48.104;11.782;2022-12-07T14:09:14;15;14;
48155;PMS5003;35568;48.104;11.782;2022-12-07T14:11:45;18;17;
48155;PMS5003;35568;48.104;11.782;2022-12-07T14:14:15;16;16;
48155;PMS5003;35568;48.104;11.782;2022-12-07T14:16:54;14;14;
48155;PMS5003;35568;48.104;11.782;2022-12-07T14:19:41;13;13;
48155;PMS5003;35568;48.104;11.782;2022-12-07T14:22:31;12;12;
48155;PMS5003;35568;48.104;11.782;2022-12-07T14:25:00;19;16;
48155;PMS5003;35568;48.104;11.782;2022-12-07T14:27:46;18;17;
48155;PMS5003;35568;48.104;11.782;2022-12-07T14:30:17;13;13;
48155;PMS5003;35568;48.104;11.782;2022-12-07T14:32:45;20;19;
48155;PMS5003;35568;48.104;11.782;2022-12-07T14:35:15;15;14;
48155;PMS5003;35568;48.104;11.782;2022-12-07T14:37:44;15;14;
48155;PMS5003;35568;48.104;11.782;2022-12-07T14:40:13;15;14;
48155;PMS5003;35568;48.104;11.782;2022-12-07T14:42:41;15;15;
48155;PMS5003;35568;48.104;11.782;2022-12-07T14:45:13;17;16;
48155;PMS5003;35568;48.104;11.782;2022-12-07T14:47:42;21;19;
48155;PMS5003;35568;48.104;11.782;2022-12-07T14:50:11;18;18;
48155;PMS5003;35568;48.104;11.782;2022-12-07T14:52:39;18;18;
48155;PMS5003;35568;48.104;11.782;2022-12-07T14:55:12;30;25;
48155;PMS5003;35568;48.104;11.782;2022-12-07T14:57:40;23;23;
48155;PMS5003;35568;48.104;11.782;2022-12-07T15:00:09;29;27;
48155;PMS5003;35568;48.104;11.782;2022-12-07T15:02:40;27;25;
48155;PMS5003;35568;48.104;11.782;2022-12-07T15:05:07;19;18;
48155;PMS5003;35568;48.104;11.782;2022-12-07T15:07:35;23;23;
48155;PMS5003;35568;48.104;11.782;2022-12-07T15:10:02;33;31;
48155;PMS5003;35568;48.104;11.782;2022-12-07T15:12:30;25;24;
48155;PMS5003;35568;48.104;11.782;2022-12-07T15:14:57;31;30;
48155;PMS5003;35568;48.104;11.782;2022-12-07T15:17:24;25;24;
48155;PMS5003;35568;48.104;11.782;2022-12-07T15:19:52;29;28;
48155;PMS5003;35568;48.104;11.782;2022-12-07T15:22:19;27;25;
48155;PMS5003;35568;48.104;11.782;2022-12-07T15:24:46;27;26;
48155;PMS5003;35568;48.104;11.782;2022-12-07T15:27:13;24;24;
48155;PMS5003;35568;48.104;11.782;2022-12-07T15:29:40;22;22;
48155;PMS5003;35568;48.104;11.782;2022-12-07T15:32:07;25;22;
48155;PMS5003;35568;48.104;11.782;2022-12-07T15:34:34;28;26;
48155;PMS5003;35568;48.104;11.782;2022-12-07T15:37:01;25;24;
48155;PMS5003;35568;48.104;11.782;2022-12-07T15:39:28;26;23;
48155;PMS5003;35568;48.104;11.782;2022-12-07T15:41:55;22;22;
48155;PMS5003;35568;48.104;11.782;2022-12-07T15:44:22;25;22;
48155;PMS5003;35568;48.104;11.782;2022-12-07T15:46:49;23;22;
48155;PMS5003;35568;48.104;11.782;2022-12-07T15:49:16;30;27;
48155;PMS5003;35568;48.104;11.782;2022-12-07T15:51:44;30;29;
48155;PMS5003;35568;48.104;11.782;2022-12-07T15:54:13;25;24;
48155;PMS5003;35568;48.104;11.782;2022-12-07T15:56:43;22;22;
48155;PMS5003;35568;48.104;11.782;2022-12-07T15:59:10;30;28;
48155;PMS5003;35568;48.104;11.782;2022-12-07T16:01:37;23;22;
48155;PMS5003;35568;48.104;11.782;2022-12-07T16:04:04;28;28;
48155;PMS5003;35568;48.104;11.782;2022-12-07T16:06:31;27;27;
48155;PMS5003;35568;48.104;11.782;2022-12-07T16:08:59;23;22;
48155;PMS5003;35568;48.104;11.782;2022-12-07T16:11:25;25;24;
48155;PMS5003;35568;48.104;11.782;2022-12-07T16:13:53;24;23;
48155;PMS5003;35568;48.104;11.782;2022-12-07T16:16:19;28;26;
48155;PMS5003;35568;48.104;11.782;2022-12-07T16:18:48;24;24;
48155;PMS5003;35568;48.104;11.782;2022-12-07T16:21:16;21;20;
48155;PMS5003;35568;48.104;11.782;2022-12-07T16:23:44;25;24;
48155;PMS5003;35568;48.104;11.782;2022-12-07T16:26:12;24;23;
48155;PMS5003;35568;48.104;11.782;2022-12-07T16:28:40;19;18;
48155;PMS5003;35568;48.104;11.782;2022-12-07T16:31:08;28;23;